createdAt,value
2019-02-17T13:34:20.029Z,25.23
2019-02-17T13:36:46.243Z,26.57
2019-02-17T13:39:12.951Z,24.73
2019-02-17T13:41:39.226Z,26.87
2019-02-17T13:44:05.460Z,24.30
2019-02-17T13:46:31.803Z,23.37
2019-02-17T13:48:58.023Z,22.30
2019-02-17T13:51:24.261Z,21.87
2019-02-17T13:53:50.527Z,21.60
2019-02-17T13:56:17.026Z,21.00
2019-02-17T13:58:43.287Z,21.33
2019-02-17T14:01:09.885Z,22.30
2019-02-17T14:03:36.427Z,22.10
2019-02-17T14:06:02.871Z,22.67
2019-02-17T14:08:31.249Z,21.30
2019-02-17T14:10:57.146Z,22.30
2019-02-17T14:13:23.392Z,21.60
2019-02-17T14:15:49.632Z,21.70
2019-02-17T14:18:16.260Z,23.67
2019-02-17T14:20:42.788Z,22.40
2019-02-17T14:23:09.024Z,24.53
2019-02-17T14:25:35.248Z,20.30
2019-02-17T14:28:01.491Z,22.13
2019-02-17T14:30:27.720Z,23.23
2019-02-17T14:32:54.348Z,23.20
2019-02-17T14:35:20.572Z,22.20
2019-02-17T14:37:46.825Z,22.57
2019-02-17T14:40:13.344Z,24.13
2019-02-17T14:42:39.689Z,22.57
2019-02-17T14:45:14.537Z,22.77
2019-02-17T14:47:41.144Z,20.57
2019-02-17T14:50:07.679Z,20.67
2019-02-17T14:52:34.225Z,21.33
2019-02-17T14:55:00.448Z,21.23
2019-02-17T14:57:26.974Z,20.03
2019-02-17T14:59:53.196Z,20.60
2019-02-17T15:02:19.841Z,19.73
2019-02-17T15:04:46.375Z,20.70
2019-02-17T15:07:12.601Z,19.63
2019-02-17T15:09:38.839Z,19.30
2019-02-17T15:12:05.059Z,22.03
2019-02-17T15:14:31.605Z,21.73
2019-02-17T15:16:57.819Z,19.17
2019-02-17T15:19:24.071Z,19.13
2019-02-17T15:21:50.288Z,21.07
2019-02-17T15:24:16.559Z,18.47
2019-02-17T15:26:43.177Z,17.30
2019-02-17T15:29:09.387Z,19.37
2019-02-17T15:31:35.632Z,17.53
2019-02-17T15:34:02.351Z,17.77
2019-02-17T15:36:28.545Z,17.27
2019-02-17T15:38:54.783Z,16.70
2019-02-17T15:41:23.225Z,17.10
2019-02-17T15:43:49.455Z,16.70
2019-02-17T15:46:15.695Z,17.00
2019-02-17T15:48:41.946Z,17.97
2019-02-17T15:51:08.207Z,18.07
2019-02-17T15:53:34.441Z,18.93
2019-02-17T15:56:00.675Z,17.37
2019-02-17T15:58:26.923Z,17.87
2019-02-17T16:00:53.151Z,17.03
2019-02-17T16:03:19.421Z,18.03
2019-02-17T16:05:45.641Z,17.67
2019-02-17T16:08:12.215Z,17.23
2019-02-17T16:10:39.687Z,19.50
2019-02-17T16:13:05.914Z,18.77
2019-02-17T16:15:32.355Z,17.67
2019-02-17T16:17:58.581Z,18.87
2019-02-17T16:20:24.799Z,17.53
2019-02-17T16:22:51.334Z,17.73
2019-02-17T16:25:17.572Z,16.90
2019-02-17T16:27:43.865Z,16.90
2019-02-17T16:30:12.785Z,17.87
2019-02-17T16:32:39.014Z,17.33
2019-02-17T16:35:05.791Z,18.27
2019-02-17T16:37:32.516Z,17.20
2019-02-17T16:39:58.756Z,17.27
2019-02-17T16:42:25.259Z,17.80
2019-02-17T16:44:51.508Z,17.27
2019-02-17T16:47:17.723Z,16.67
2019-02-17T16:49:44.356Z,16.40
2019-02-17T16:52:11.003Z,18.33
2019-02-17T16:54:37.371Z,16.60
2019-02-17T16:57:04.067Z,17.50
2019-02-17T16:59:30.313Z,17.57
2019-02-17T17:01:56.529Z,16.97
2019-02-17T17:04:22.768Z,17.93
2019-02-17T17:06:49.390Z,17.07
2019-02-17T17:09:15.619Z,18.70
2019-02-17T17:11:41.855Z,17.40
2019-02-17T17:14:09.101Z,18.87
2019-02-17T17:16:35.427Z,18.30
2019-02-17T17:19:01.659Z,18.30
2019-02-17T17:21:27.999Z,18.93
2019-02-17T17:23:54.732Z,19.20
2019-02-17T17:26:20.984Z,18.03
2019-02-17T17:28:47.212Z,20.20
2019-02-17T17:31:13.460Z,18.80
2019-02-17T17:33:40.066Z,18.70
2019-02-17T17:36:06.313Z,18.50
2019-02-17T17:38:33.557Z,18.87
2019-02-17T17:41:00.076Z,18.63
2019-02-17T17:43:26.317Z,18.13
2019-02-17T17:45:52.547Z,20.70
2019-02-17T17:48:18.937Z,20.03
2019-02-17T17:50:45.311Z,20.33
2019-02-17T17:53:12.039Z,19.50
2019-02-17T17:55:38.287Z,19.13
2019-02-17T17:58:04.508Z,19.97
2019-02-17T18:00:32.683Z,20.13
2019-02-17T18:03:02.083Z,20.00
2019-02-17T18:05:28.336Z,20.40
2019-02-17T18:07:54.944Z,20.10
2019-02-17T18:10:21.226Z,20.30
2019-02-17T18:12:47.998Z,20.60
2019-02-17T18:15:16.709Z,21.60
2019-02-17T18:17:43.013Z,22.03
2019-02-17T18:20:12.538Z,23.10
2019-02-17T18:22:38.900Z,22.63
2019-02-17T18:25:07.161Z,21.20
2019-02-17T18:27:33.402Z,22.80
2019-02-17T18:29:59.656Z,20.57
2019-02-17T18:32:25.875Z,21.83
2019-02-17T18:34:52.511Z,20.73
2019-02-17T18:37:19.103Z,20.47
2019-02-17T18:39:45.467Z,22.83
2019-02-17T18:42:11.795Z,23.13
2019-02-17T18:44:38.028Z,22.20
2019-02-17T18:47:04.275Z,21.30
2019-02-17T18:49:30.551Z,23.20
2019-02-17T18:51:57.087Z,21.97
2019-02-17T18:54:23.332Z,23.53
2019-02-17T18:56:49.679Z,22.87
2019-02-17T18:59:15.935Z,20.70
2019-02-17T19:01:42.516Z,22.60
2019-02-17T19:04:08.739Z,22.57
2019-02-17T19:06:35.017Z,23.70
2019-02-17T19:09:01.236Z,23.00
2019-02-17T19:11:27.491Z,24.83
2019-02-17T19:13:53.738Z,23.07
2019-02-17T19:16:20.316Z,22.43
2019-02-17T19:18:46.548Z,22.40
2019-02-17T19:21:12.880Z,21.23
2019-02-17T19:23:39.288Z,21.93
2019-02-17T19:26:05.515Z,22.57
2019-02-17T19:28:32.180Z,21.47
2019-02-17T19:30:58.427Z,22.17
2019-02-17T19:33:24.883Z,21.00
2019-02-17T19:35:51.153Z,21.60
2019-02-17T19:38:17.395Z,22.30
2019-02-17T19:40:43.643Z,22.80
2019-02-17T19:43:10.248Z,22.27
2019-02-17T19:45:36.899Z,22.13
2019-02-17T19:48:03.632Z,24.30
2019-02-17T19:50:29.887Z,22.77
2019-02-17T19:52:57.213Z,24.60
2019-02-17T19:55:24.192Z,24.10
2019-02-17T19:57:50.866Z,23.20
2019-02-17T20:00:19.580Z,23.77
2019-02-17T20:03:00.369Z,21.87
2019-02-17T20:05:35.358Z,22.33
2019-02-17T20:08:02.356Z,20.73
2019-02-17T20:10:28.623Z,20.93
2019-02-17T20:12:57.262Z,23.50
2019-02-17T20:15:25.426Z,22.60
2019-02-17T20:17:51.627Z,23.50
2019-02-17T20:20:17.895Z,23.60
2019-02-17T20:22:44.135Z,22.67
2019-02-17T20:25:10.989Z,24.10
2019-02-17T20:27:37.275Z,23.07
2019-02-17T20:30:11.802Z,24.43
2019-02-17T20:32:40.799Z,23.63
2019-02-17T20:35:08.121Z,22.00
2019-02-17T20:37:34.321Z,22.40
2019-02-17T20:40:00.689Z,22.73
2019-02-17T20:42:26.937Z,23.03
2019-02-17T20:44:53.124Z,24.07
2019-02-17T20:47:19.374Z,23.50
2019-02-17T20:49:45.947Z,23.70
2019-02-17T20:52:12.201Z,23.53
2019-02-17T20:54:38.708Z,22.77
2019-02-17T20:57:05.227Z,23.30
2019-02-17T20:59:32.400Z,24.17
2019-02-17T21:01:59.046Z,22.50
2019-02-17T21:04:25.277Z,23.00
2019-02-17T21:06:51.580Z,25.03
2019-02-17T21:09:17.950Z,24.43
2019-02-17T21:11:45.076Z,24.80
2019-02-17T21:14:11.522Z,24.97
2019-02-17T21:16:38.109Z,23.97
2019-02-17T21:19:04.827Z,23.90
2019-02-17T21:21:31.329Z,23.90
2019-02-17T21:23:57.888Z,25.70
2019-02-17T21:26:27.207Z,22.97
2019-02-17T21:28:53.785Z,25.33
2019-02-17T21:31:23.328Z,23.90
2019-02-17T21:33:49.766Z,23.63
2019-02-17T21:36:22.884Z,25.23
2019-02-17T21:38:45.675Z,25.30
2019-02-17T21:41:12.236Z,24.40
2019-02-17T21:43:38.836Z,25.43
2019-02-17T21:46:05.555Z,23.60
2019-02-17T21:48:31.881Z,25.00
2019-02-17T21:50:58.502Z,25.10
2019-02-17T21:53:25.077Z,27.13
2019-02-17T21:55:51.370Z,25.83
2019-02-17T22:00:50.235Z,25.23
2019-02-17T22:03:17.069Z,24.60
2019-02-17T22:05:44.865Z,25.73
2019-02-17T22:08:11.298Z,26.47
2019-02-17T22:10:37.572Z,25.30
2019-02-17T22:13:04.058Z,25.80
2019-02-17T22:15:30.368Z,26.00
2019-02-17T22:17:56.705Z,24.83
2019-02-17T22:20:23.133Z,24.80
2019-02-17T22:22:49.767Z,25.03
2019-02-17T22:25:16.275Z,24.83
2019-02-17T22:27:42.661Z,25.27
2019-02-17T22:30:11.933Z,24.10
2019-02-17T22:32:38.355Z,25.13
2019-02-17T22:35:04.920Z,22.63
2019-02-17T22:37:31.329Z,24.30
2019-02-17T22:39:57.634Z,22.87
2019-02-17T22:42:24.383Z,23.57
2019-02-17T22:44:50.790Z,23.10
2019-02-17T22:47:17.395Z,23.87
2019-02-17T22:49:45.574Z,22.07
2019-02-17T22:52:12.151Z,23.70
2019-02-17T22:54:38.397Z,24.73
2019-02-17T22:57:04.678Z,23.63
2019-02-17T22:59:40.268Z,23.63
2019-02-17T23:02:07.434Z,23.40
2019-02-17T23:04:33.990Z,24.93
2019-02-17T23:07:00.229Z,25.57
2019-02-17T23:09:26.713Z,23.57
2019-02-17T23:11:53.243Z,23.37
2019-02-17T23:14:19.895Z,23.13
2019-02-17T23:16:46.334Z,24.80
2019-02-17T23:19:12.991Z,22.53
2019-02-17T23:21:39.290Z,24.60
2019-02-17T23:24:05.781Z,24.63
2019-02-17T23:26:32.194Z,24.45
2019-02-17T23:28:58.735Z,25.20
2019-02-17T23:31:26.275Z,24.77
2019-02-17T23:33:52.881Z,24.30
2019-02-17T23:36:19.557Z,25.85
2019-02-17T23:38:45.848Z,24.55
2019-02-17T23:41:12.161Z,24.80
2019-02-17T23:43:38.548Z,24.30
2019-02-17T23:46:05.080Z,23.77
2019-02-17T23:48:31.711Z,24.63
2019-02-17T23:50:59.583Z,24.67
2019-02-17T23:53:27.152Z,23.92
2019-02-17T23:55:53.468Z,25.62
2019-02-17T23:58:19.793Z,26.70
